createdAt,value
2023-03-23T15:57:55.615Z,80.05
2023-03-23T15:59:59.027Z,80.45
2023-03-23T16:02:02.574Z,81.05
2023-03-23T16:04:09.083Z,81.32
2023-03-23T16:06:24.140Z,81.40
2023-03-23T16:08:29.049Z,81.54
2023-03-23T16:10:32.553Z,81.40
2023-03-23T16:12:36.034Z,81.42
2023-03-23T16:14:41.040Z,80.86
2023-03-23T16:16:49.716Z,80.43
2023-03-23T16:18:54.508Z,80.85
2023-03-23T16:20:57.941Z,81.30
2023-03-23T16:23:01.621Z,81.49
2023-03-23T16:25:05.676Z,81.81
2023-03-23T16:27:11.412Z,81.89
2023-03-23T16:29:33.745Z,81.88
2023-03-23T16:31:42.231Z,81.48
2023-03-23T16:33:46.039Z,81.43
2023-03-23T16:35:49.657Z,81.41
2023-03-23T16:38:08.458Z,81.22
2023-03-23T16:40:13.715Z,81.32
2023-03-23T16:42:17.175Z,81.56
2023-03-23T16:44:20.832Z,81.77
2023-03-23T16:46:24.278Z,82.04
2023-03-23T16:48:29.322Z,82.26
2023-03-23T16:50:33.432Z,82.24
2023-03-23T16:52:46.246Z,82.72
2023-03-23T16:54:50.050Z,83.04
2023-03-23T16:56:53.887Z,83.21
2023-03-23T16:58:57.345Z,83.33
2023-03-23T17:01:02.803Z,83.46
2023-03-23T17:03:06.473Z,83.67
2023-03-23T17:05:12.308Z,83.69
2023-03-23T17:07:16.510Z,84.01
2023-03-23T17:09:20.466Z,84.01
2023-03-23T17:11:24.254Z,84.03
2023-03-23T17:13:29.083Z,84.11
2023-03-23T17:15:33.470Z,84.15
2023-03-23T17:17:38.132Z,84.01
2023-03-23T17:19:42.348Z,83.88
2023-03-23T17:21:47.998Z,84.03
2023-03-23T17:23:51.641Z,84.07
2023-03-23T17:25:55.710Z,83.96
2023-03-23T17:28:05.708Z,83.69
2023-03-23T17:30:11.556Z,83.44
2023-03-23T17:32:15.924Z,83.15
2023-03-23T17:34:22.218Z,82.86
2023-03-23T17:36:31.376Z,82.49
2023-03-23T17:38:36.454Z,82.65
2023-03-23T17:40:40.463Z,82.47
2023-03-23T17:42:43.944Z,82.58
2023-03-23T17:44:47.407Z,82.49
2023-03-23T17:46:50.965Z,82.78
2023-03-23T17:48:54.708Z,82.87
2023-03-23T17:50:59.154Z,82.95
2023-03-23T17:53:02.639Z,83.03
2023-03-23T17:55:08.786Z,83.19
2023-03-23T17:57:12.598Z,83.24
2023-03-23T17:59:16.315Z,83.77
2023-03-23T18:01:19.822Z,83.50
2023-03-23T18:03:24.467Z,83.52
2023-03-23T18:05:28.442Z,83.83
2023-03-23T18:07:31.904Z,83.91
2023-03-23T18:09:35.402Z,83.90
2023-03-23T18:11:40.261Z,83.92
2023-03-23T18:13:43.680Z,84.00
2023-03-23T18:15:47.214Z,83.92
2023-03-23T18:17:51.966Z,84.10
2023-03-23T18:19:55.783Z,84.27
2023-03-23T18:21:59.195Z,84.37
2023-03-23T18:24:02.578Z,84.41
2023-03-23T18:26:07.909Z,84.53
2023-03-23T18:28:12.708Z,84.86
2023-03-23T18:30:16.476Z,84.86
2023-03-23T18:32:19.962Z,84.76
2023-03-23T18:34:23.632Z,84.89
2023-03-23T18:36:28.641Z,85.10
2023-03-23T18:38:32.848Z,85.28
2023-03-23T18:40:36.339Z,85.14
2023-03-23T18:42:40.976Z,85.13
2023-03-23T18:44:45.976Z,85.22
2023-03-23T18:46:49.347Z,85.31
2023-03-23T18:48:52.768Z,85.30
2023-03-23T18:50:58.569Z,85.42
2023-03-23T18:53:02.025Z,85.37
2023-03-23T18:55:06.104Z,85.39
2023-03-23T18:57:09.524Z,85.40
2023-03-23T18:59:12.953Z,85.31
2023-03-23T19:01:18.715Z,85.06
2023-03-23T19:03:22.230Z,84.97
2023-03-23T19:05:25.729Z,84.97
2023-03-23T19:07:30.316Z,84.98
2023-03-23T19:09:35.364Z,84.75
2023-03-23T19:11:38.764Z,84.67
2023-03-23T19:13:54.007Z,84.67
2023-03-23T19:16:02.465Z,84.39
2023-03-23T19:18:07.524Z,84.51
2023-03-23T19:20:16.156Z,84.60
2023-03-23T19:22:20.713Z,84.76
2023-03-23T19:24:26.345Z,84.81
2023-03-23T19:26:33.928Z,84.90
2023-03-23T19:29:05.608Z,85.04
2023-03-23T19:31:03.042Z,84.94
2023-03-23T19:33:07.896Z,85.04
2023-03-23T19:35:11.503Z,84.85
2023-03-23T19:37:16.310Z,84.89
2023-03-23T19:39:20.509Z,84.85
2023-03-23T19:43:29.414Z,84.95
2023-03-23T19:45:32.907Z,85.23
2023-03-23T19:47:36.430Z,84.92
2023-03-23T19:49:41.431Z,85.04
2023-03-23T19:51:45.039Z,85.16
2023-03-23T19:53:49.222Z,85.09
2023-03-23T19:55:52.668Z,84.95
2023-03-23T19:57:56.143Z,85.01
2023-03-23T20:00:00.127Z,84.82
2023-03-23T20:02:03.760Z,84.77
2023-03-23T20:04:07.188Z,84.64
2023-03-23T20:06:15.352Z,84.48
2023-03-23T20:08:18.934Z,84.51
2023-03-23T20:10:22.674Z,84.64
2023-03-23T20:12:26.461Z,84.62
2023-03-23T20:14:30.321Z,84.74
2023-03-23T20:16:34.143Z,84.71
2023-03-23T20:18:38.214Z,84.56
2023-03-23T20:20:41.801Z,84.62
2023-03-23T20:22:46.630Z,84.82
2023-03-23T20:24:50.035Z,84.72
2023-03-23T20:26:53.375Z,84.83
2023-03-23T20:28:57.000Z,84.75
2023-03-23T20:31:18.967Z,84.88
2023-03-23T20:33:26.627Z,84.76
2023-03-23T20:35:30.735Z,84.69
2023-03-23T20:37:34.614Z,84.61
2023-03-23T20:39:41.817Z,84.49
2023-03-23T20:41:48.441Z,84.57
2023-03-23T20:43:51.939Z,84.49
2023-03-23T20:45:55.332Z,84.51
2023-03-23T20:48:02.290Z,84.49
2023-03-23T20:50:07.333Z,84.58
2023-03-23T20:52:12.014Z,84.50
2023-03-23T20:54:16.196Z,84.40
2023-03-23T20:56:21.252Z,84.47
2023-03-23T20:58:26.384Z,84.51
2023-03-23T21:00:29.745Z,84.44
2023-03-23T21:02:34.283Z,84.42
2023-03-23T21:04:40.096Z,84.50
2023-03-23T21:06:44.175Z,84.59
2023-03-23T21:08:47.757Z,84.53
2023-03-23T21:10:52.392Z,84.50
2023-03-23T21:12:57.338Z,84.47
2023-03-23T21:15:00.720Z,84.54
2023-03-23T21:17:04.815Z,84.55
2023-03-23T21:19:09.103Z,84.70
2023-03-23T21:21:15.037Z,84.96
2023-03-23T21:23:19.588Z,84.94
2023-03-23T21:25:34.090Z,84.84
2023-03-23T21:27:39.147Z,85.08
2023-03-23T21:29:44.938Z,85.00
2023-03-23T21:31:52.138Z,85.07
2023-03-23T21:34:01.525Z,85.13
2023-03-23T21:36:05.185Z,85.19
2023-03-23T21:38:14.257Z,85.02
2023-03-23T21:40:19.275Z,85.23
2023-03-23T21:42:30.398Z,85.23
2023-03-23T21:44:35.422Z,85.27
2023-03-23T21:46:42.091Z,85.38
2023-03-23T21:48:45.986Z,85.50
2023-03-23T21:50:49.929Z,85.48
2023-03-23T21:52:54.059Z,85.51
2023-03-23T21:54:58.902Z,85.59
2023-03-23T21:57:02.422Z,85.74
2023-03-23T21:59:07.708Z,85.70
2023-03-23T22:01:13.060Z,85.66
2023-03-23T22:03:23.039Z,85.65
2023-03-23T22:05:26.850Z,85.55
2023-03-23T22:07:33.396Z,85.58
2023-03-23T22:09:39.023Z,85.42
2023-03-23T22:11:44.246Z,85.46
2023-03-23T22:13:49.042Z,85.35
2023-03-23T22:15:53.263Z,85.44
2023-03-23T22:17:57.115Z,85.37
2023-03-23T22:20:02.193Z,85.41
2023-03-23T22:22:05.971Z,85.43
2023-03-23T22:24:09.677Z,85.20
2023-03-23T22:26:14.558Z,85.28
2023-03-23T22:28:19.625Z,85.30
2023-03-23T22:30:24.621Z,85.39
2023-03-23T22:32:28.219Z,85.40
2023-03-23T22:34:32.583Z,85.42
2023-03-23T22:36:38.906Z,85.32
2023-03-23T22:38:44.162Z,85.31
2023-03-23T22:40:55.914Z,85.14
2023-03-23T22:42:59.831Z,85.36
2023-03-23T22:45:03.774Z,85.13
2023-03-23T22:47:07.515Z,85.10
2023-03-23T22:49:11.812Z,85.49
2023-03-23T22:51:17.837Z,85.20
2023-03-23T22:53:23.513Z,85.35
2023-03-23T22:55:27.166Z,85.46
2023-03-23T22:57:30.756Z,85.33
2023-03-23T22:59:34.465Z,85.44
2023-03-23T23:01:38.220Z,85.26
2023-03-23T23:03:42.160Z,85.48
2023-03-23T23:05:47.150Z,85.35
2023-03-23T23:07:50.844Z,85.29
2023-03-23T23:09:55.875Z,85.43
2023-03-23T23:11:59.408Z,85.31
2023-03-23T23:14:03.343Z,85.04
2023-03-23T23:16:08.107Z,85.25
2023-03-23T23:18:12.546Z,85.16
2023-03-23T23:20:17.045Z,85.15
2023-03-23T23:22:21.481Z,85.12
2023-03-23T23:24:26.577Z,85.16
2023-03-23T23:26:31.691Z,85.19
2023-03-23T23:28:36.211Z,85.00
2023-03-23T23:30:40.000Z,84.93
2023-03-23T23:32:44.771Z,84.86
2023-03-23T23:34:48.586Z,84.87
2023-03-23T23:36:52.249Z,84.94
2023-03-23T23:38:56.088Z,84.84
2023-03-23T23:40:59.706Z,84.70
2023-03-23T23:43:06.242Z,84.84
2023-03-23T23:45:10.853Z,84.73
2023-03-23T23:47:14.739Z,84.90
2023-03-23T23:49:18.358Z,84.70
2023-03-23T23:51:22.278Z,84.63
2023-03-23T23:53:26.037Z,84.64
2023-03-23T23:55:30.241Z,84.53
2023-03-23T23:57:33.977Z,84.27
2023-03-23T23:59:39.017Z,84.38
